sensor_id;sensor_type;location;lat;lon;timestamp;temperature;humidity
15765;DHT22;7983;50.744;7.086;2023-08-20T00:02:08;24.10;99.90
15765;DHT22;7983;50.744;7.086;2023-08-20T00:04:36;24.10;99.90
15765;DHT22;7983;50.744;7.086;2023-08-20T00:07:04;24.10;99.90
15765;DHT22;7983;50.744;7.086;2023-08-20T00:09:30;24.00;99.90
15765;DHT22;7983;50.744;7.086;2023-08-20T00:11:58;24.00;99.90
15765;DHT22;7983;50.744;7.086;2023-08-20T00:15:00;23.90;99.90
15765;DHT22;7983;50.744;7.086;2023-08-20T00:17:38;23.90;99.90
15765;DHT22;7983;50.744;7.086;2023-08-20T00:20:09;23.90;99.90
15765;DHT22;7983;50.744;7.086;2023-08-20T00:22:42;23.90;99.90
15765;DHT22;7983;50.744;7.086;2023-08-20T00:25:12;23.80;99.90
15765;DHT22;7983;50.744;7.086;2023-08-20T00:27:41;23.80;99.90
15765;DHT22;7983;50.744;7.086;2023-08-20T00:30:11;23.80;99.90
15765;DHT22;7983;50.744;7.086;2023-08-20T00:32:37;23.70;99.90
15765;DHT22;7983;50.744;7.086;2023-08-20T00:35:04;23.70;99.90
15765;DHT22;7983;50.744;7.086;2023-08-20T00:37:30;23.70;99.90
15765;DHT22;7983;50.744;7.086;2023-08-20T00:39:59;23.70;99.90
15765;DHT22;7983;50.744;7.086;2023-08-20T00:42:27;23.70;99.90
15765;DHT22;7983;50.744;7.086;2023-08-20T00:44:53;23.70;99.90
15765;DHT22;7983;50.744;7.086;2023-08-20T00:47:21;23.60;99.90
15765;DHT22;7983;50.744;7.086;2023-08-20T00:49:47;23.60;99.90
15765;DHT22;7983;50.744;7.086;2023-08-20T00:52:15;23.60;99.90
15765;DHT22;7983;50.744;7.086;2023-08-20T00:54:48;23.60;99.90
15765;DHT22;7983;50.744;7.086;2023-08-20T00:57:18;23.60;99.90
15765;DHT22;7983;50.744;7.086;2023-08-20T00:59:52;23.50;99.90
15765;DHT22;7983;50.744;7.086;2023-08-20T01:02:21;23.50;99.90
15765;DHT22;7983;50.744;7.086;2023-08-20T01:04:50;23.40;99.90
15765;DHT22;7983;50.744;7.086;2023-08-20T01:12:19;23.40;99.90
15765;DHT22;7983;50.744;7.086;2023-08-20T01:14:48;23.40;99.90
15765;DHT22;7983;50.744;7.086;2023-08-20T01:17:13;23.40;99.90
15765;DHT22;7983;50.744;7.086;2023-08-20T01:19:39;23.40;99.90
15765;DHT22;7983;50.744;7.086;2023-08-20T01:29:58;23.30;99.90
15765;DHT22;7983;50.744;7.086;2023-08-20T01:32:28;23.30;99.90
15765;DHT22;7983;50.744;7.086;2023-08-20T01:34:56;23.30;99.90
15765;DHT22;7983;50.744;7.086;2023-08-20T01:37:22;23.20;99.90
15765;DHT22;7983;50.744;7.086;2023-08-20T01:39:48;23.20;99.90
15765;DHT22;7983;50.744;7.086;2023-08-20T01:42:13;23.10;99.90
15765;DHT22;7983;50.744;7.086;2023-08-20T01:44:42;23.10;99.90
15765;DHT22;7983;50.744;7.086;2023-08-20T01:47:07;23.10;99.90
15765;DHT22;7983;50.744;7.086;2023-08-20T01:49:35;23.10;99.90
15765;DHT22;7983;50.744;7.086;2023-08-20T01:52:03;23.10;99.90
15765;DHT22;7983;50.744;7.086;2023-08-20T01:54:29;23.10;99.90
15765;DHT22;7983;50.744;7.086;2023-08-20T01:56:55;23.10;99.90
15765;DHT22;7983;50.744;7.086;2023-08-20T01:59:23;23.00;99.90
15765;DHT22;7983;50.744;7.086;2023-08-20T02:01:49;23.10;99.90
15765;DHT22;7983;50.744;7.086;2023-08-20T02:04:15;23.10;99.90
15765;DHT22;7983;50.744;7.086;2023-08-20T02:06:43;23.10;99.90
15765;DHT22;7983;50.744;7.086;2023-08-20T02:09:10;23.10;99.90
15765;DHT22;7983;50.744;7.086;2023-08-20T02:11:38;23.00;99.90
15765;DHT22;7983;50.744;7.086;2023-08-20T02:14:06;23.00;99.90
15765;DHT22;7983;50.744;7.086;2023-08-20T02:16:32;23.00;99.90
15765;DHT22;7983;50.744;7.086;2023-08-20T02:18:58;23.00;99.90
15765;DHT22;7983;50.744;7.086;2023-08-20T02:21:23;23.00;99.90
15765;DHT22;7983;50.744;7.086;2023-08-20T02:23:49;23.00;99.90
15765;DHT22;7983;50.744;7.086;2023-08-20T02:26:14;23.00;99.90
15765;DHT22;7983;50.744;7.086;2023-08-20T02:28:40;22.90;99.90
15765;DHT22;7983;50.744;7.086;2023-08-20T02:31:06;22.90;99.90
15765;DHT22;7983;50.744;7.086;2023-08-20T02:33:38;22.90;99.90
15765;DHT22;7983;50.744;7.086;2023-08-20T02:36:04;22.90;99.90
15765;DHT22;7983;50.744;7.086;2023-08-20T02:38:32;22.80;99.90
15765;DHT22;7983;50.744;7.086;2023-08-20T02:41:01;22.80;99.90
15765;DHT22;7983;50.744;7.086;2023-08-20T02:43:30;22.70;99.90
15765;DHT22;7983;50.744;7.086;2023-08-20T02:45:56;22.70;99.90
15765;DHT22;7983;50.744;7.086;2023-08-20T02:48:22;22.70;99.90
15765;DHT22;7983;50.744;7.086;2023-08-20T02:50:57;22.70;99.90
15765;DHT22;7983;50.744;7.086;2023-08-20T02:53:27;22.70;99.90
15765;DHT22;7983;50.744;7.086;2023-08-20T02:55:52;22.60;99.90
15765;DHT22;7983;50.744;7.086;2023-08-20T02:58:21;22.60;99.90
15765;DHT22;7983;50.744;7.086;2023-08-20T03:00:46;22.60;99.90
15765;DHT22;7983;50.744;7.086;2023-08-20T03:03:14;22.60;99.90
15765;DHT22;7983;50.744;7.086;2023-08-20T03:05:40;22.60;99.90
15765;DHT22;7983;50.744;7.086;2023-08-20T03:08:06;22.60;99.90
15765;DHT22;7983;50.744;7.086;2023-08-20T03:10:39;22.60;99.90
15765;DHT22;7983;50.744;7.086;2023-08-20T03:13:05;22.60;99.90
15765;DHT22;7983;50.744;7.086;2023-08-20T03:15:31;22.60;99.90
15765;DHT22;7983;50.744;7.086;2023-08-20T03:17:56;22.60;99.90
15765;DHT22;7983;50.744;7.086;2023-08-20T03:20:22;22.60;99.90
15765;DHT22;7983;50.744;7.086;2023-08-20T03:22:48;22.50;99.90
15765;DHT22;7983;50.744;7.086;2023-08-20T03:25:16;22.50;99.90
15765;DHT22;7983;50.744;7.086;2023-08-20T03:27:44;22.50;99.90
15765;DHT22;7983;50.744;7.086;2023-08-20T03:30:12;22.50;99.90
15765;DHT22;7983;50.744;7.086;2023-08-20T03:32:42;22.50;99.90
15765;DHT22;7983;50.744;7.086;2023-08-20T03:35:10;22.40;99.90
15765;DHT22;7983;50.744;7.086;2023-08-20T03:37:36;22.40;99.90
15765;DHT22;7983;50.744;7.086;2023-08-20T03:40:06;22.40;99.90
15765;DHT22;7983;50.744;7.086;2023-08-20T03:42:39;22.40;99.90
15765;DHT22;7983;50.744;7.086;2023-08-20T03:45:05;22.30;99.90
15765;DHT22;7983;50.744;7.086;2023-08-20T03:47:31;22.30;99.90
15765;DHT22;7983;50.744;7.086;2023-08-20T03:49:57;22.30;99.90
15765;DHT22;7983;50.744;7.086;2023-08-20T03:52:22;22.30;99.90
15765;DHT22;7983;50.744;7.086;2023-08-20T03:54:50;22.20;99.90
15765;DHT22;7983;50.744;7.086;2023-08-20T03:57:18;22.20;99.90
15765;DHT22;7983;50.744;7.086;2023-08-20T03:59:46;22.20;99.90
15765;DHT22;7983;50.744;7.086;2023-08-20T04:02:14;22.20;99.90
15765;DHT22;7983;50.744;7.086;2023-08-20T04:04:42;22.10;99.90
15765;DHT22;7983;50.744;7.086;2023-08-20T04:07:08;22.10;99.90
15765;DHT22;7983;50.744;7.086;2023-08-20T04:09:33;22.10;99.90
15765;DHT22;7983;50.744;7.086;2023-08-20T04:12:04;22.00;99.90
15765;DHT22;7983;50.744;7.086;2023-08-20T04:14:30;22.00;99.90
15765;DHT22;7983;50.744;7.086;2023-08-20T04:16:55;22.00;99.90
15765;DHT22;7983;50.744;7.086;2023-08-20T04:19:21;22.00;99.90
15765;DHT22;7983;50.744;7.086;2023-08-20T04:21:49;22.00;99.90
15765;DHT22;7983;50.744;7.086;2023-08-20T04:24:15;22.00;99.90
15765;DHT22;7983;50.744;7.086;2023-08-20T04:26:41;22.10;99.90
15765;DHT22;7983;50.744;7.086;2023-08-20T04:29:06;22.10;99.90
15765;DHT22;7983;50.744;7.086;2023-08-20T04:31:32;22.10;99.90
15765;DHT22;7983;50.744;7.086;2023-08-20T04:33:57;22.10;99.90
15765;DHT22;7983;50.744;7.086;2023-08-20T04:36:23;22.10;99.90
15765;DHT22;7983;50.744;7.086;2023-08-20T04:38:49;22.10;99.90
15765;DHT22;7983;50.744;7.086;2023-08-20T04:41:14;22.10;99.90
15765;DHT22;7983;50.744;7.086;2023-08-20T04:43:40;22.20;99.90
15765;DHT22;7983;50.744;7.086;2023-08-20T04:46:08;22.20;99.90
15765;DHT22;7983;50.744;7.086;2023-08-20T04:48:34;22.10;99.90
15765;DHT22;7983;50.744;7.086;2023-08-20T04:51:02;22.20;99.90
15765;DHT22;7983;50.744;7.086;2023-08-20T04:53:32;22.10;99.90
15765;DHT22;7983;50.744;7.086;2023-08-20T04:55:58;22.10;99.90
15765;DHT22;7983;50.744;7.086;2023-08-20T04:58:26;22.10;99.90
15765;DHT22;7983;50.744;7.086;2023-08-20T05:00:54;22.10;99.90
15765;DHT22;7983;50.744;7.086;2023-08-20T05:03:20;22.10;99.90
15765;DHT22;7983;50.744;7.086;2023-08-20T05:05:52;22.10;99.90
15765;DHT22;7983;50.744;7.086;2023-08-20T05:08:20;22.10;99.90
15765;DHT22;7983;50.744;7.086;2023-08-20T05:10:45;22.10;99.90
15765;DHT22;7983;50.744;7.086;2023-08-20T05:13:11;22.00;99.90
15765;DHT22;7983;50.744;7.086;2023-08-20T05:15:36;22.10;99.90
15765;DHT22;7983;50.744;7.086;2023-08-20T05:18:02;22.10;99.90
15765;DHT22;7983;50.744;7.086;2023-08-20T05:20:30;22.10;99.90
15765;DHT22;7983;50.744;7.086;2023-08-20T05:22:56;22.10;99.90
15765;DHT22;7983;50.744;7.086;2023-08-20T05:25:24;22.20;99.90
15765;DHT22;7983;50.744;7.086;2023-08-20T05:27:49;22.10;99.90
15765;DHT22;7983;50.744;7.086;2023-08-20T05:30:17;22.20;99.90
15765;DHT22;7983;50.744;7.086;2023-08-20T05:32:43;22.20;99.90
15765;DHT22;7983;50.744;7.086;2023-08-20T05:35:09;22.20;99.90
15765;DHT22;7983;50.744;7.086;2023-08-20T05:37:34;22.20;99.90
15765;DHT22;7983;50.744;7.086;2023-08-20T05:40:00;22.30;99.90
15765;DHT22;7983;50.744;7.086;2023-08-20T05:42:26;22.30;99.90
15765;DHT22;7983;50.744;7.086;2023-08-20T05:44:51;22.30;99.90
15765;DHT22;7983;50.744;7.086;2023-08-20T05:47:21;22.30;99.90
15765;DHT22;7983;50.744;7.086;2023-08-20T05:49:47;22.30;99.90
15765;DHT22;7983;50.744;7.086;2023-08-20T05:52:13;22.40;99.90
15765;DHT22;7983;50.744;7.086;2023-08-20T05:54:38;22.40;99.90
15765;DHT22;7983;50.744;7.086;2023-08-20T05:57:04;22.40;99.90
15765;DHT22;7983;50.744;7.086;2023-08-20T05:59:30;22.40;99.90
15765;DHT22;7983;50.744;7.086;2023-08-20T06:01:55;22.50;99.90
15765;DHT22;7983;50.744;7.086;2023-08-20T06:04:21;22.50;99.90
15765;DHT22;7983;50.744;7.086;2023-08-20T06:06:47;22.60;99.90
15765;DHT22;7983;50.744;7.086;2023-08-20T06:09:17;22.60;99.90
15765;DHT22;7983;50.744;7.086;2023-08-20T06:11:45;22.70;99.90
15765;DHT22;7983;50.744;7.086;2023-08-20T06:14:10;22.70;99.90
15765;DHT22;7983;50.744;7.086;2023-08-20T06:16:36;22.80;99.90
15765;DHT22;7983;50.744;7.086;2023-08-20T06:19:02;22.90;99.90
15765;DHT22;7983;50.744;7.086;2023-08-20T06:21:28;22.90;99.90
15765;DHT22;7983;50.744;7.086;2023-08-20T06:23:53;23.00;99.90
15765;DHT22;7983;50.744;7.086;2023-08-20T06:26:21;23.00;99.90
15765;DHT22;7983;50.744;7.086;2023-08-20T06:28:47;23.00;99.90
15765;DHT22;7983;50.744;7.086;2023-08-20T06:31:12;23.10;99.90
15765;DHT22;7983;50.744;7.086;2023-08-20T06:33:38;23.10;99.90
15765;DHT22;7983;50.744;7.086;2023-08-20T06:36:04;23.10;99.90
15765;DHT22;7983;50.744;7.086;2023-08-20T06:38:32;23.10;99.90
15765;DHT22;7983;50.744;7.086;2023-08-20T06:40:58;23.20;99.90
15765;DHT22;7983;50.744;7.086;2023-08-20T06:43:23;23.20;99.90
15765;DHT22;7983;50.744;7.086;2023-08-20T06:45:51;23.20;99.90
15765;DHT22;7983;50.744;7.086;2023-08-20T06:48:19;23.20;99.90
15765;DHT22;7983;50.744;7.086;2023-08-20T06:50:47;23.20;99.90
15765;DHT22;7983;50.744;7.086;2023-08-20T06:53:15;23.20;99.90
15765;DHT22;7983;50.744;7.086;2023-08-20T06:55:41;23.30;99.90
15765;DHT22;7983;50.744;7.086;2023-08-20T06:58:06;23.30;99.90
15765;DHT22;7983;50.744;7.086;2023-08-20T07:00:32;23.30;99.90
15765;DHT22;7983;50.744;7.086;2023-08-20T07:02:58;23.30;99.90
15765;DHT22;7983;50.744;7.086;2023-08-20T07:05:25;23.40;99.90
15765;DHT22;7983;50.744;7.086;2023-08-20T07:07:53;23.40;99.90
15765;DHT22;7983;50.744;7.086;2023-08-20T07:10:21;23.40;99.90
15765;DHT22;7983;50.744;7.086;2023-08-20T07:12:47;23.40;99.90
15765;DHT22;7983;50.744;7.086;2023-08-20T07:15:15;23.50;99.90
15765;DHT22;7983;50.744;7.086;2023-08-20T07:17:40;23.50;99.90
15765;DHT22;7983;50.744;7.086;2023-08-20T07:20:06;23.60;99.90
15765;DHT22;7983;50.744;7.086;2023-08-20T07:22:35;23.60;99.90
15765;DHT22;7983;50.744;7.086;2023-08-20T07:25:03;23.60;99.90
15765;DHT22;7983;50.744;7.086;2023-08-20T07:27:33;23.70;99.90
15765;DHT22;7983;50.744;7.086;2023-08-20T07:30:01;23.70;99.90
15765;DHT22;7983;50.744;7.086;2023-08-20T07:32:28;23.80;99.90
15765;DHT22;7983;50.744;7.086;2023-08-20T07:34:53;23.90;99.90
15765;DHT22;7983;50.744;7.086;2023-08-20T07:37:19;23.90;99.90
15765;DHT22;7983;50.744;7.086;2023-08-20T07:39:47;23.90;99.90
15765;DHT22;7983;50.744;7.086;2023-08-20T07:42:12;24.00;99.90
15765;DHT22;7983;50.744;7.086;2023-08-20T07:44:40;24.00;99.90
15765;DHT22;7983;50.744;7.086;2023-08-20T07:47:10;24.10;99.90
15765;DHT22;7983;50.744;7.086;2023-08-20T07:49:36;24.10;99.90
15765;DHT22;7983;50.744;7.086;2023-08-20T07:52:01;24.20;99.90
15765;DHT22;7983;50.744;7.086;2023-08-20T07:54:29;24.30;99.90
15765;DHT22;7983;50.744;7.086;2023-08-20T07:56:55;24.30;99.90
15765;DHT22;7983;50.744;7.086;2023-08-20T07:59:20;24.30;99.90
15765;DHT22;7983;50.744;7.086;2023-08-20T08:01:49;24.40;99.90
15765;DHT22;7983;50.744;7.086;2023-08-20T08:04:16;24.50;99.90
15765;DHT22;7983;50.744;7.086;2023-08-20T08:06:42;24.50;99.90
15765;DHT22;7983;50.744;7.086;2023-08-20T08:09:19;24.60;99.90
15765;DHT22;7983;50.744;7.086;2023-08-20T08:11:46;24.60;99.90
15765;DHT22;7983;50.744;7.086;2023-08-20T08:14:11;24.70;99.90
15765;DHT22;7983;50.744;7.086;2023-08-20T08:16:37;24.80;99.90
15765;DHT22;7983;50.744;7.086;2023-08-20T08:19:03;24.80;99.90
15765;DHT22;7983;50.744;7.086;2023-08-20T08:21:28;24.90;99.90
15765;DHT22;7983;50.744;7.086;2023-08-20T08:23:56;25.00;99.90
15765;DHT22;7983;50.744;7.086;2023-08-20T08:26:22;25.00;99.90
15765;DHT22;7983;50.744;7.086;2023-08-20T08:28:50;25.10;99.90
15765;DHT22;7983;50.744;7.086;2023-08-20T08:31:15;25.20;99.90
15765;DHT22;7983;50.744;7.086;2023-08-20T08:33:43;25.20;99.90
15765;DHT22;7983;50.744;7.086;2023-08-20T08:36:09;25.30;99.90
15765;DHT22;7983;50.744;7.086;2023-08-20T08:38:34;25.40;99.90
15765;DHT22;7983;50.744;7.086;2023-08-20T08:41:05;25.40;99.90
15765;DHT22;7983;50.744;7.086;2023-08-20T08:43:32;25.50;99.90
15765;DHT22;7983;50.744;7.086;2023-08-20T08:45:58;25.60;99.90
15765;DHT22;7983;50.744;7.086;2023-08-20T08:48:28;25.60;99.90
15765;DHT22;7983;50.744;7.086;2023-08-20T08:50:55;25.70;99.90
15765;DHT22;7983;50.744;7.086;2023-08-20T08:53:23;25.80;99.90
15765;DHT22;7983;50.744;7.086;2023-08-20T08:55:50;25.80;99.90
15765;DHT22;7983;50.744;7.086;2023-08-20T08:58:18;25.90;99.90
15765;DHT22;7983;50.744;7.086;2023-08-20T09:00:43;26.00;99.90
15765;DHT22;7983;50.744;7.086;2023-08-20T09:03:09;26.10;99.90
15765;DHT22;7983;50.744;7.086;2023-08-20T09:05:48;26.20;99.90
15765;DHT22;7983;50.744;7.086;2023-08-20T09:08:28;26.20;99.90
15765;DHT22;7983;50.744;7.086;2023-08-20T09:10:55;26.30;99.90
15765;DHT22;7983;50.744;7.086;2023-08-20T09:13:24;26.40;99.90
15765;DHT22;7983;50.744;7.086;2023-08-20T09:15:53;26.50;99.90
15765;DHT22;7983;50.744;7.086;2023-08-20T09:18:23;26.50;99.90
15765;DHT22;7983;50.744;7.086;2023-08-20T09:20:51;26.60;99.90
15765;DHT22;7983;50.744;7.086;2023-08-20T09:23:19;26.70;99.90
15765;DHT22;7983;50.744;7.086;2023-08-20T09:25:45;26.70;99.90
15765;DHT22;7983;50.744;7.086;2023-08-20T09:28:14;26.80;99.90
15765;DHT22;7983;50.744;7.086;2023-08-20T09:30:41;26.90;99.90
15765;DHT22;7983;50.744;7.086;2023-08-20T09:33:24;27.00;99.90
15765;DHT22;7983;50.744;7.086;2023-08-20T09:35:53;27.00;99.90
15765;DHT22;7983;50.744;7.086;2023-08-20T09:38:20;27.10;99.90
15765;DHT22;7983;50.744;7.086;2023-08-20T09:40:54;27.20;99.90
15765;DHT22;7983;50.744;7.086;2023-08-20T09:43:25;27.30;99.90
15765;DHT22;7983;50.744;7.086;2023-08-20T09:45:57;27.40;99.90
15765;DHT22;7983;50.744;7.086;2023-08-20T09:48:29;27.40;99.90
15765;DHT22;7983;50.744;7.086;2023-08-20T09:50:59;27.50;99.90
15765;DHT22;7983;50.744;7.086;2023-08-20T09:55:58;27.80;99.90
15765;DHT22;7983;50.744;7.086;2023-08-20T09:58:25;27.90;99.90
15765;DHT22;7983;50.744;7.086;2023-08-20T10:00:52;28.00;99.90
15765;DHT22;7983;50.744;7.086;2023-08-20T10:03:21;28.10;99.90
15765;DHT22;7983;50.744;7.086;2023-08-20T10:05:50;28.20;99.90
15765;DHT22;7983;50.744;7.086;2023-08-20T10:08:17;28.30;99.90
15765;DHT22;7983;50.744;7.086;2023-08-20T10:10:45;28.40;99.90
15765;DHT22;7983;50.744;7.086;2023-08-20T10:13:13;28.50;99.90
15765;DHT22;7983;50.744;7.086;2023-08-20T10:15:39;28.80;99.90
15765;DHT22;7983;50.744;7.086;2023-08-20T10:18:05;29.20;99.90
15765;DHT22;7983;50.744;7.086;2023-08-20T10:20:32;29.60;99.90
15765;DHT22;7983;50.744;7.086;2023-08-20T10:23:03;30.20;99.90
15765;DHT22;7983;50.744;7.086;2023-08-20T10:25:29;30.60;99.90
15765;DHT22;7983;50.744;7.086;2023-08-20T10:28:11;31.00;99.90
15765;DHT22;7983;50.744;7.086;2023-08-20T10:30:38;31.40;99.90
15765;DHT22;7983;50.744;7.086;2023-08-20T10:33:08;31.60;99.90
15765;DHT22;7983;50.744;7.086;2023-08-20T10:38:13;32.00;99.90
15765;DHT22;7983;50.744;7.086;2023-08-20T10:40:58;32.20;99.90
15765;DHT22;7983;50.744;7.086;2023-08-20T10:43:45;32.50;99.90
15765;DHT22;7983;50.744;7.086;2023-08-20T10:51:36;33.30;99.90
15765;DHT22;7983;50.744;7.086;2023-08-20T10:56:46;33.60;99.90
15765;DHT22;7983;50.744;7.086;2023-08-20T10:59:27;33.80;99.90
15765;DHT22;7983;50.744;7.086;2023-08-20T11:01:57;34.00;99.90
15765;DHT22;7983;50.744;7.086;2023-08-20T11:04:28;34.20;99.90
15765;DHT22;7983;50.744;7.086;2023-08-20T11:06:56;34.20;99.90
15765;DHT22;7983;50.744;7.086;2023-08-20T11:09:27;34.30;99.90
15765;DHT22;7983;50.744;7.086;2023-08-20T11:11:53;34.10;99.90
15765;DHT22;7983;50.744;7.086;2023-08-20T11:14:22;33.80;99.90
15765;DHT22;7983;50.744;7.086;2023-08-20T11:16:48;33.40;99.90
15765;DHT22;7983;50.744;7.086;2023-08-20T11:19:14;33.00;99.90
15765;DHT22;7983;50.744;7.086;2023-08-20T11:21:45;32.70;99.90
15765;DHT22;7983;50.744;7.086;2023-08-20T11:24:14;32.40;99.90
15765;DHT22;7983;50.744;7.086;2023-08-20T11:26:40;32.30;99.90
15765;DHT22;7983;50.744;7.086;2023-08-20T11:29:13;32.20;99.90
15765;DHT22;7983;50.744;7.086;2023-08-20T11:31:40;32.10;99.90
15765;DHT22;7983;50.744;7.086;2023-08-20T11:34:09;32.10;99.90
15765;DHT22;7983;50.744;7.086;2023-08-20T11:36:38;32.00;99.90
15765;DHT22;7983;50.744;7.086;2023-08-20T11:39:04;31.90;99.90
15765;DHT22;7983;50.744;7.086;2023-08-20T11:41:30;31.80;99.90
15765;DHT22;7983;50.744;7.086;2023-08-20T11:43:56;31.80;99.90
15765;DHT22;7983;50.744;7.086;2023-08-20T11:46:23;31.90;99.90
15765;DHT22;7983;50.744;7.086;2023-08-20T11:51:49;31.80;99.90
15765;DHT22;7983;50.744;7.086;2023-08-20T11:54:16;31.80;99.90
15765;DHT22;7983;50.744;7.086;2023-08-20T11:59:12;31.90;99.90
15765;DHT22;7983;50.744;7.086;2023-08-20T12:01:38;31.90;99.90
15765;DHT22;7983;50.744;7.086;2023-08-20T12:04:05;32.00;99.90
15765;DHT22;7983;50.744;7.086;2023-08-20T12:06:31;32.20;99.90
15765;DHT22;7983;50.744;7.086;2023-08-20T12:09:00;32.40;99.90
15765;DHT22;7983;50.744;7.086;2023-08-20T12:11:31;32.60;99.90
15765;DHT22;7983;50.744;7.086;2023-08-20T12:14:04;32.90;99.90
15765;DHT22;7983;50.744;7.086;2023-08-20T12:16:30;33.10;99.90
15765;DHT22;7983;50.744;7.086;2023-08-20T12:18:55;33.30;99.90
15765;DHT22;7983;50.744;7.086;2023-08-20T12:21:23;33.40;99.90
15765;DHT22;7983;50.744;7.086;2023-08-20T12:23:51;33.50;99.90
15765;DHT22;7983;50.744;7.086;2023-08-20T12:26:17;33.60;99.90
15765;DHT22;7983;50.744;7.086;2023-08-20T12:28:45;33.60;99.90
15765;DHT22;7983;50.744;7.086;2023-08-20T12:31:11;33.60;99.90
15765;DHT22;7983;50.744;7.086;2023-08-20T12:33:37;33.60;99.90
15765;DHT22;7983;50.744;7.086;2023-08-20T12:36:02;33.60;99.90
15765;DHT22;7983;50.744;7.086;2023-08-20T12:38:28;33.60;99.90
15765;DHT22;7983;50.744;7.086;2023-08-20T12:40:59;33.60;99.90
15765;DHT22;7983;50.744;7.086;2023-08-20T12:43:27;33.70;99.90
15765;DHT22;7983;50.744;7.086;2023-08-20T12:45:53;33.70;99.90
15765;DHT22;7983;50.744;7.086;2023-08-20T12:48:18;33.80;99.90
15765;DHT22;7983;50.744;7.086;2023-08-20T12:50:44;33.90;99.90
15765;DHT22;7983;50.744;7.086;2023-08-20T12:53:10;34.10;99.90
15765;DHT22;7983;50.744;7.086;2023-08-20T12:55:35;34.30;99.90
15765;DHT22;7983;50.744;7.086;2023-08-20T12:58:01;34.30;99.90
15765;DHT22;7983;50.744;7.086;2023-08-20T13:00:29;34.30;99.90
15765;DHT22;7983;50.744;7.086;2023-08-20T13:02:57;34.20;99.90
15765;DHT22;7983;50.744;7.086;2023-08-20T13:05:24;34.10;99.90
15765;DHT22;7983;50.744;7.086;2023-08-20T13:07:53;34.10;99.90
15765;DHT22;7983;50.744;7.086;2023-08-20T13:10:21;34.00;99.90
15765;DHT22;7983;50.744;7.086;2023-08-20T13:12:51;33.90;99.90
15765;DHT22;7983;50.744;7.086;2023-08-20T13:15:20;33.70;99.90
15765;DHT22;7983;50.744;7.086;2023-08-20T13:17:48;33.60;99.90
15765;DHT22;7983;50.744;7.086;2023-08-20T13:20:16;33.40;99.90
15765;DHT22;7983;50.744;7.086;2023-08-20T13:22:51;33.20;99.90
15765;DHT22;7983;50.744;7.086;2023-08-20T13:25:18;33.10;99.90
15765;DHT22;7983;50.744;7.086;2023-08-20T13:27:44;33.00;99.90
15765;DHT22;7983;50.744;7.086;2023-08-20T13:30:12;33.00;99.90
15765;DHT22;7983;50.744;7.086;2023-08-20T13:32:42;33.10;99.90
15765;DHT22;7983;50.744;7.086;2023-08-20T13:35:07;33.20;99.90
15765;DHT22;7983;50.744;7.086;2023-08-20T13:37:34;33.30;99.90
15765;DHT22;7983;50.744;7.086;2023-08-20T13:40:00;33.50;99.90
15765;DHT22;7983;50.744;7.086;2023-08-20T13:42:26;33.50;99.90
15765;DHT22;7983;50.744;7.086;2023-08-20T13:44:52;33.50;99.90
15765;DHT22;7983;50.744;7.086;2023-08-20T13:47:22;33.50;99.90
15765;DHT22;7983;50.744;7.086;2023-08-20T13:49:53;33.50;99.90
15765;DHT22;7983;50.744;7.086;2023-08-20T13:52:18;33.50;99.90
15765;DHT22;7983;50.744;7.086;2023-08-20T13:54:44;33.60;99.90
15765;DHT22;7983;50.744;7.086;2023-08-20T13:57:10;33.70;99.90
15765;DHT22;7983;50.744;7.086;2023-08-20T13:59:35;33.80;99.90
15765;DHT22;7983;50.744;7.086;2023-08-20T14:02:03;33.90;99.90
15765;DHT22;7983;50.744;7.086;2023-08-20T14:04:29;33.90;99.90
15765;DHT22;7983;50.744;7.086;2023-08-20T14:06:54;33.80;99.90
15765;DHT22;7983;50.744;7.086;2023-08-20T14:09:20;33.80;99.90
15765;DHT22;7983;50.744;7.086;2023-08-20T14:11:46;33.70;99.90
15765;DHT22;7983;50.744;7.086;2023-08-20T14:14:12;33.70;99.90
15765;DHT22;7983;50.744;7.086;2023-08-20T14:16:38;33.80;99.90
15765;DHT22;7983;50.744;7.086;2023-08-20T14:19:03;33.90;99.90
15765;DHT22;7983;50.744;7.086;2023-08-20T14:21:29;34.00;99.90
15765;DHT22;7983;50.744;7.086;2023-08-20T14:23:55;34.10;99.90
15765;DHT22;7983;50.744;7.086;2023-08-20T14:26:22;34.20;99.90
15765;DHT22;7983;50.744;7.086;2023-08-20T14:28:49;34.30;99.90
15765;DHT22;7983;50.744;7.086;2023-08-20T14:31:14;34.40;99.90
15765;DHT22;7983;50.744;7.086;2023-08-20T14:33:40;34.40;99.90
15765;DHT22;7983;50.744;7.086;2023-08-20T14:36:08;34.40;99.90
15765;DHT22;7983;50.744;7.086;2023-08-20T14:38:33;34.40;99.90
15765;DHT22;7983;50.744;7.086;2023-08-20T14:41:03;34.40;99.90
15765;DHT22;7983;50.744;7.086;2023-08-20T14:43:34;34.20;99.90
15765;DHT22;7983;50.744;7.086;2023-08-20T14:45:59;34.00;99.90
15765;DHT22;7983;50.744;7.086;2023-08-20T14:48:32;33.90;99.90
15765;DHT22;7983;50.744;7.086;2023-08-20T14:51:00;33.80;99.90
15765;DHT22;7983;50.744;7.086;2023-08-20T14:53:30;33.60;99.90
15765;DHT22;7983;50.744;7.086;2023-08-20T14:55:58;33.60;99.90
15765;DHT22;7983;50.744;7.086;2023-08-20T14:58:24;33.60;99.90
15765;DHT22;7983;50.744;7.086;2023-08-20T15:00:50;33.80;99.90
15765;DHT22;7983;50.744;7.086;2023-08-20T15:03:15;33.90;99.90
15765;DHT22;7983;50.744;7.086;2023-08-20T15:05:42;34.10;99.90
15765;DHT22;7983;50.744;7.086;2023-08-20T15:08:07;34.30;99.90
15765;DHT22;7983;50.744;7.086;2023-08-20T15:10:33;34.40;99.90
15765;DHT22;7983;50.744;7.086;2023-08-20T15:12:58;34.60;99.90
15765;DHT22;7983;50.744;7.086;2023-08-20T15:15:24;34.60;99.90
15765;DHT22;7983;50.744;7.086;2023-08-20T15:17:56;34.50;99.90
15765;DHT22;7983;50.744;7.086;2023-08-20T15:20:22;34.30;99.90
15765;DHT22;7983;50.744;7.086;2023-08-20T15:22:49;34.10;99.90
15765;DHT22;7983;50.744;7.086;2023-08-20T15:25:15;33.90;99.90
15765;DHT22;7983;50.744;7.086;2023-08-20T15:27:41;33.80;99.90
15765;DHT22;7983;50.744;7.086;2023-08-20T15:30:09;33.60;99.90
15765;DHT22;7983;50.744;7.086;2023-08-20T15:32:35;33.50;99.90
15765;DHT22;7983;50.744;7.086;2023-08-20T15:35:00;33.50;99.90
15765;DHT22;7983;50.744;7.086;2023-08-20T15:37:31;33.40;99.90
15765;DHT22;7983;50.744;7.086;2023-08-20T15:39:56;33.30;99.90
15765;DHT22;7983;50.744;7.086;2023-08-20T15:42:22;33.20;99.90
15765;DHT22;7983;50.744;7.086;2023-08-20T15:44:50;33.20;99.90
15765;DHT22;7983;50.744;7.086;2023-08-20T15:47:16;33.20;99.90
15765;DHT22;7983;50.744;7.086;2023-08-20T15:49:44;33.20;99.90
15765;DHT22;7983;50.744;7.086;2023-08-20T15:52:09;33.30;99.90
15765;DHT22;7983;50.744;7.086;2023-08-20T15:54:35;33.40;99.90
15765;DHT22;7983;50.744;7.086;2023-08-20T15:57:02;33.50;99.90
15765;DHT22;7983;50.744;7.086;2023-08-20T15:59:28;33.50;99.90
15765;DHT22;7983;50.744;7.086;2023-08-20T16:01:53;33.70;99.90
15765;DHT22;7983;50.744;7.086;2023-08-20T16:04:19;33.80;99.90
15765;DHT22;7983;50.744;7.086;2023-08-20T16:06:47;33.80;99.90
15765;DHT22;7983;50.744;7.086;2023-08-20T16:09:17;33.80;99.90
15765;DHT22;7983;50.744;7.086;2023-08-20T16:11:45;33.80;99.90
15765;DHT22;7983;50.744;7.086;2023-08-20T16:14:11;33.80;99.90
15765;DHT22;7983;50.744;7.086;2023-08-20T16:16:39;33.70;99.90
15765;DHT22;7983;50.744;7.086;2023-08-20T16:19:07;33.50;99.90